Time;durP1;ratioP1;P1;durP2;ratioP2;P2;SDS_P1;SDS_P2;PMS_P1;PMS_P2;Temp;Humidity;BMP_temperature;BMP_pressure;BME280_temperature;BME280_humidity;BME280_pressure;Samples;Min_cycle;Max_cycle;Signal;HPM_P1;HPM_P2
2023/01/09 00:02:26;;;;;;;4.63;4.17;;;;;;;;;;6212655;28;20277;-89
2023/01/09 00:05:32;;;;;;;7.13;4.40;;;;;;;;;;6186661;28;20300;-89
2023/01/09 00:08:38;;;;;;;5.00;4.03;;;;;;;;;;6191045;28;20310;-90
2023/01/09 00:11:45;;;;;;;5.40;4.20;;;;;;;;;;6212834;28;20262;-90
2023/01/09 00:14:50;;;;;;;4.80;4.23;;;;;;;;;;6212250;28;20300;-89
2023/01/09 00:17:56;;;;;;;4.63;4.10;;;;;;;;;;6232010;28;20294;-89
2023/01/09 00:21:02;;;;;;;6.23;4.37;;;;;;;;;;6199127;28;20278;-88
2023/01/09 00:24:08;;;;;;;5.60;4.13;;;;;;;;;;6220886;28;20286;-90
2023/01/09 00:27:15;;;;;;;4.33;3.87;;;;;;;;;;6238675;28;20238;-89
2023/01/09 00:30:21;;;;;;;6.43;4.73;;;;;;;;;;6239229;28;20264;-89
2023/01/09 00:33:29;;;;;;;6.70;4.40;;;;;;;;;;6217812;28;20310;-89
2023/01/09 00:36:34;;;;;;;4.63;4.30;;;;;;;;;;6218162;28;20267;-91
2023/01/09 00:39:41;;;;;;;5.90;4.70;;;;;;;;;;6201158;28;20299;-90
2023/01/09 00:42:57;;;;;;;6.97;4.80;;;;;;;;;;6200476;28;20279;-90
2023/01/09 00:46:05;;;;;;;6.27;4.67;;;;;;;;;;6197976;28;20293;-90
2023/01/09 00:49:12;;;;;;;5.73;4.00;;;;;;;;;;6228209;28;20304;-90
2023/01/09 00:52:18;;;;;;;4.63;4.10;;;;;;;;;;6214604;28;20274;-89
2023/01/09 00:55:25;;;;;;;4.70;4.30;;;;;;;;;;6216934;28;20290;-89
2023/01/09 00:58:33;;;;;;;6.60;4.47;;;;;;;;;;6222400;28;20627;-90
2023/01/09 01:01:39;;;;;;;6.53;4.60;;;;;;;;;;6229454;28;20259;-91
2023/01/09 01:08:11;;;;;;;5.77;4.60;;;;;;;;;;6176505;28;20295;-90
2023/01/09 01:11:17;;;;;;;4.33;3.93;;;;;;;;;;6198984;28;20268;-90
2023/01/09 01:14:25;;;;;;;7.43;4.80;;;;;;;;;;6207923;28;20295;-89
2023/01/09 01:17:31;;;;;;;6.47;5.07;;;;;;;;;;6208465;28;20278;-89
2023/01/09 01:20:37;;;;;;;6.13;4.97;;;;;;;;;;6190553;28;20271;-89
2023/01/09 01:23:43;;;;;;;6.20;5.30;;;;;;;;;;6207865;28;20314;-90
2023/01/09 01:26:50;;;;;;;5.50;5.00;;;;;;;;;;6210745;28;20288;-90
2023/01/09 01:29:58;;;;;;;6.53;4.77;;;;;;;;;;6211275;28;20297;-89
2023/01/09 01:33:05;;;;;;;6.23;5.40;;;;;;;;;;6210429;28;20295;-88
2023/01/09 01:36:16;;;;;;;9.90;5.67;;;;;;;;;;6195188;28;20264;-91
2023/01/09 01:39:22;;;;;;;10.53;5.83;;;;;;;;;;6177895;28;20494;-91
2023/01/09 01:42:29;;;;;;;9.43;6.13;;;;;;;;;;6210671;28;20295;-90
2023/01/09 01:45:39;;;;;;;9.73;5.73;;;;;;;;;;6193788;28;20296;-90
2023/01/09 01:48:46;;;;;;;8.97;5.93;;;;;;;;;;6214009;28;20295;-89
2023/01/09 01:51:53;;;;;;;8.57;6.17;;;;;;;;;;6194623;28;20283;-89
2023/01/09 01:55:00;;;;;;;10.30;6.13;;;;;;;;;;6210240;28;20300;-90
2023/01/09 01:58:09;;;;;;;9.23;6.47;;;;;;;;;;6211415;28;20307;-89
2023/01/09 02:01:17;;;;;;;9.00;6.20;;;;;;;;;;6212767;28;20291;-90
2023/01/09 02:04:25;;;;;;;9.63;5.80;;;;;;;;;;6213346;28;20308;-89
2023/01/09 02:07:33;;;;;;;9.77;6.27;;;;;;;;;;6225547;28;20286;-89
2023/01/09 02:10:40;;;;;;;7.47;6.10;;;;;;;;;;6229555;28;20253;-88
2023/01/09 02:13:46;;;;;;;10.57;6.13;;;;;;;;;;6205584;28;20244;-90
2023/01/09 02:17:02;;;;;;;8.53;5.30;;;;;;;;;;6178041;28;20347;-90
2023/01/09 02:20:42;;;;;;;11.07;6.63;;;;;;;;;;6184482;28;20299;-89
2023/01/09 02:24:12;;;;;;;10.27;5.83;;;;;;;;;;6212328;28;20324;-90
2023/01/09 02:27:52;;;;;;;9.97;6.23;;;;;;;;;;6209517;28;20288;-90
2023/01/09 02:31:06;;;;;;;9.70;5.87;;;;;;;;;;6209555;28;20280;-91
2023/01/09 02:34:16;;;;;;;12.33;6.90;;;;;;;;;;6177251;28;20302;-90
2023/01/09 02:37:27;;;;;;;14.80;6.63;;;;;;;;;;6209583;28;20268;-90
2023/01/09 02:40:38;;;;;;;13.73;7.23;;;;;;;;;;6192335;28;20287;-91
2023/01/09 02:43:45;;;;;;;16.30;7.30;;;;;;;;;;6192182;28;20299;-91
2023/01/09 02:47:05;;;;;;;13.10;6.80;;;;;;;;;;6209820;28;20291;-91
2023/01/09 02:50:16;;;;;;;14.03;7.43;;;;;;;;;;6191822;28;20299;-91
2023/01/09 02:53:53;;;;;;;11.07;6.43;;;;;;;;;;6208952;28;20333;-90
2023/01/09 02:57:15;;;;;;;14.73;6.97;;;;;;;;;;6170793;28;20297;-90
2023/01/09 03:00:29;;;;;;;14.40;7.40;;;;;;;;;;6176331;28;20311;-91
2023/01/09 03:03:41;;;;;;;10.50;6.33;;;;;;;;;;6193842;28;20319;-91
2023/01/09 03:06:50;;;;;;;15.57;7.43;;;;;;;;;;6216434;28;20282;-90
2023/01/09 03:10:01;;;;;;;13.77;7.00;;;;;;;;;;6213209;28;20292;-89
2023/01/09 03:13:11;;;;;;;13.97;8.03;;;;;;;;;;6192185;28;20302;-90
2023/01/09 03:16:22;;;;;;;15.63;7.77;;;;;;;;;;6210368;28;20208;-90
2023/01/09 03:19:35;;;;;;;17.13;7.83;;;;;;;;;;6209330;28;20295;-89
2023/01/09 03:22:48;;;;;;;18.70;8.00;;;;;;;;;;6201900;28;20264;-90
2023/01/09 03:25:54;;;;;;;18.17;7.87;;;;;;;;;;6197251;28;20273;-90
2023/01/09 03:29:00;;;;;;;24.67;8.43;;;;;;;;;;6191357;28;20311;-90
2023/01/09 03:32:07;;;;;;;21.73;8.23;;;;;;;;;;6193834;28;20272;-89
2023/01/09 03:35:15;;;;;;;22.77;8.67;;;;;;;;;;6194537;28;20315;-90
2023/01/09 03:38:23;;;;;;;21.07;8.80;;;;;;;;;;6208490;28;20354;-90
2023/01/09 03:41:31;;;;;;;24.37;7.90;;;;;;;;;;6208739;28;20268;-90
2023/01/09 03:44:37;;;;;;;35.83;8.07;;;;;;;;;;6216167;28;20298;-88
2023/01/09 03:47:44;;;;;;;21.53;8.63;;;;;;;;;;6206967;28;20292;-90
2023/01/09 03:50:54;;;;;;;22.37;7.93;;;;;;;;;;6206877;28;20276;-90
2023/01/09 03:54:00;;;;;;;70.13;9.47;;;;;;;;;;6207499;28;20317;-90
2023/01/09 03:57:08;;;;;;;20.77;8.00;;;;;;;;;;6207408;28;20268;-91
2023/01/09 04:00:14;;;;;;;63.70;8.30;;;;;;;;;;6207830;28;20612;-90
2023/01/09 04:03:22;;;;;;;19.70;7.97;;;;;;;;;;6209642;28;20281;-90
2023/01/09 04:06:29;;;;;;;20.83;8.67;;;;;;;;;;6221759;28;20306;-90
2023/01/09 04:09:35;;;;;;;27.20;8.50;;;;;;;;;;6239258;28;20311;-90
2023/01/09 04:12:41;;;;;;;26.90;9.27;;;;;;;;;;6223599;28;20270;-90
2023/01/09 04:15:47;;;;;;;86.67;10.23;;;;;;;;;;6239311;28;20319;-90
2023/01/09 04:18:53;;;;;;;34.27;7.80;;;;;;;;;;6238038;28;20449;-89
2023/01/09 04:22:01;;;;;;;27.40;8.97;;;;;;;;;;6207594;28;20455;-90
2023/01/09 04:25:07;;;;;;;28.93;9.07;;;;;;;;;;6222486;28;20302;-90
2023/01/09 04:28:15;;;;;;;31.27;9.33;;;;;;;;;;6222365;28;20331;-89
2023/01/09 04:31:20;;;;;;;28.90;9.20;;;;;;;;;;6241941;28;20286;-88
2023/01/09 04:34:26;;;;;;;33.60;9.07;;;;;;;;;;6235412;28;20257;-90
2023/01/09 04:37:35;;;;;;;33.50;9.77;;;;;;;;;;6239644;28;20259;-89
2023/01/09 04:40:42;;;;;;;35.77;9.67;;;;;;;;;;6222873;28;20298;-89
2023/01/09 04:43:47;;;;;;;38.17;8.97;;;;;;;;;;6223455;28;20274;-90
2023/01/09 04:46:57;;;;;;;33.50;9.13;;;;;;;;;;6226133;28;20269;-90
2023/01/09 04:50:04;;;;;;;166.43;12.50;;;;;;;;;;6221870;28;20300;-89
2023/01/09 04:53:12;;;;;;;125.60;10.90;;;;;;;;;;6238170;28;20278;-88
2023/01/09 04:56:19;;;;;;;67.63;10.53;;;;;;;;;;6238933;28;20383;-88
2023/01/09 04:59:25;;;;;;;33.97;8.83;;;;;;;;;;6238570;28;20295;-89
2023/01/09 05:02:32;;;;;;;43.50;10.93;;;;;;;;;;6239510;28;20274;-89
2023/01/09 05:05:38;;;;;;;95.80;11.30;;;;;;;;;;6224632;28;20332;-90
2023/01/09 05:08:46;;;;;;;117.80;11.93;;;;;;;;;;6248639;28;20279;-91
2023/01/09 05:11:53;;;;;;;79.37;11.17;;;;;;;;;;6207123;28;20296;-91
2023/01/09 05:15:01;;;;;;;52.33;10.70;;;;;;;;;;6239002;28;20290;-91
2023/01/09 05:18:07;;;;;;;54.67;10.50;;;;;;;;;;6239777;28;20255;-91
2023/01/09 05:21:15;;;;;;;52.87;10.77;;;;;;;;;;6226731;28;20296;-91
2023/01/09 05:24:22;;;;;;;70.07;11.10;;;;;;;;;;6240170;28;20296;-90
2023/01/09 05:27:29;;;;;;;41.27;9.83;;;;;;;;;;6239017;28;20355;-91
2023/01/09 05:30:35;;;;;;;158.10;13.17;;;;;;;;;;6222683;28;20290;-91
2023/01/09 05:33:41;;;;;;;172.57;12.23;;;;;;;;;;6238594;28;20266;-90
2023/01/09 05:36:52;;;;;;;196.27;14.37;;;;;;;;;;6221734;28;20271;-90
2023/01/09 05:40:16;;;;;;;43.73;8.53;;;;;;;;;;6225618;28;20322;-89
2023/01/09 05:43:22;;;;;;;223.37;14.43;;;;;;;;;;6237522;28;20255;-89
2023/01/09 05:46:36;;;;;;;66.40;10.20;;;;;;;;;;6247662;28;20310;-91
2023/01/09 05:49:41;;;;;;;69.67;10.97;;;;;;;;;;6242471;28;20301;-90
2023/01/09 05:52:49;;;;;;;52.37;11.10;;;;;;;;;;6243122;28;20267;-91
2023/01/09 05:55:58;;;;;;;204.93;13.70;;;;;;;;;;6226261;28;20306;-90
2023/01/09 05:59:06;;;;;;;65.73;11.13;;;;;;;;;;6242778;28;20297;-90
2023/01/09 06:02:35;;;;;;;106.43;11.47;;;;;;;;;;6242370;28;20270;-90
2023/01/09 06:05:42;;;;;;;112.37;12.67;;;;;;;;;;6235542;28;20311;-90
2023/01/09 06:08:49;;;;;;;267.80;16.23;;;;;;;;;;6235810;28;20288;-90
2023/01/09 06:11:57;;;;;;;220.40;14.53;;;;;;;;;;6234220;28;20267;-91
2023/01/09 06:15:06;;;;;;;241.63;13.67;;;;;;;;;;6218347;28;20307;-90
2023/01/09 06:18:14;;;;;;;102.23;10.10;;;;;;;;;;6219333;28;20262;-90
2023/01/09 06:21:34;;;;;;;66.00;11.20;;;;;;;;;;6202142;28;20307;-90
2023/01/09 06:24:53;;;;;;;319.13;36.17;;;;;;;;;;6219142;28;20587;-90
2023/01/09 06:28:02;;;;;;;103.53;25.87;;;;;;;;;;6203890;28;20291;-88
2023/01/09 06:31:09;;;;;;;466.90;25.97;;;;;;;;;;6210491;28;20277;-89
2023/01/09 06:34:16;;;;;;;379.27;28.17;;;;;;;;;;6217826;28;20294;-91
2023/01/09 06:37:22;;;;;;;143.80;17.47;;;;;;;;;;6218616;28;20267;-91
2023/01/09 06:40:28;;;;;;;152.43;16.13;;;;;;;;;;6217957;28;20294;-89
2023/01/09 06:43:37;;;;;;;76.03;12.67;;;;;;;;;;6200888;28;20322;-88
2023/01/09 06:46:43;;;;;;;233.77;16.10;;;;;;;;;;6217054;28;20473;-91
2023/01/09 06:49:48;;;;;;;147.40;15.27;;;;;;;;;;6201058;28;20294;-89
2023/01/09 06:52:54;;;;;;;114.97;13.53;;;;;;;;;;6225376;28;20236;-88
2023/01/09 06:56:01;;;;;;;181.53;16.13;;;;;;;;;;6225390;28;20259;-90
2023/01/09 06:59:09;;;;;;;192.03;14.80;;;;;;;;;;6217716;28;20296;-89
2023/01/09 07:02:18;;;;;;;70.87;12.60;;;;;;;;;;6217430;28;20270;-89
2023/01/09 07:05:25;;;;;;;167.03;13.50;;;;;;;;;;6225701;28;20303;-89
2023/01/09 07:08:31;;;;;;;148.93;14.23;;;;;;;;;;6232731;28;20301;-90
2023/01/09 07:11:38;;;;;;;79.60;9.57;;;;;;;;;;6232823;28;20300;-89
2023/01/09 07:14:47;;;;;;;125.13;12.77;;;;;;;;;;6231232;28;20317;-89
2023/01/09 07:17:54;;;;;;;287.00;15.93;;;;;;;;;;6232699;28;20278;-91
2023/01/09 07:21:04;;;;;;;190.70;14.47;;;;;;;;;;6231481;28;20300;-89
2023/01/09 07:24:13;;;;;;;115.57;12.00;;;;;;;;;;6231142;28;20296;-90
2023/01/09 07:27:20;;;;;;;198.40;13.37;;;;;;;;;;6216104;28;20312;-89
2023/01/09 07:30:29;;;;;;;165.07;11.17;;;;;;;;;;6215563;28;20306;-89
2023/01/09 07:33:36;;;;;;;113.77;10.77;;;;;;;;;;6216170;28;20274;-90
2023/01/09 07:36:45;;;;;;;275.27;19.23;;;;;;;;;;6215141;28;20309;-89
2023/01/09 07:39:52;;;;;;;159.03;12.23;;;;;;;;;;6216488;28;20571;-90
2023/01/09 07:42:58;;;;;;;165.90;12.63;;;;;;;;;;6232728;28;20275;-90
2023/01/09 07:46:06;;;;;;;198.47;13.60;;;;;;;;;;6231286;28;20582;-89
2023/01/09 07:49:12;;;;;;;108.03;10.90;;;;;;;;;;6231404;28;20306;-89
2023/01/09 07:52:19;;;;;;;202.83;13.17;;;;;;;;;;6235825;28;20273;-88
2023/01/09 07:55:25;;;;;;;148.33;11.43;;;;;;;;;;6218336;28;20300;-89
2023/01/09 07:58:33;;;;;;;77.07;9.70;;;;;;;;;;6231644;28;20264;-90
2023/01/09 08:01:41;;;;;;;37.10;8.97;;;;;;;;;;6231138;28;20301;-90
2023/01/09 08:04:48;;;;;;;179.30;18.70;;;;;;;;;;6244456;28;20291;-88
2023/01/09 08:07:55;;;;;;;93.10;12.03;;;;;;;;;;6233367;28;20457;-89
2023/01/09 08:11:01;;;;;;;71.17;12.50;;;;;;;;;;6229317;28;20296;-90
2023/01/09 08:14:15;;;;;;;91.50;13.57;;;;;;;;;;6213455;28;20298;-88
2023/01/09 08:17:32;;;;;;;243.13;16.83;;;;;;;;;;6231206;28;20270;-89
2023/01/09 08:20:38;;;;;;;181.60;13.80;;;;;;;;;;6231686;28;20304;-89
2023/01/09 08:23:45;;;;;;;161.73;14.63;;;;;;;;;;6232315;28;20558;-90
2023/01/09 08:26:50;;;;;;;150.70;13.40;;;;;;;;;;6234355;28;20264;-88
2023/01/09 08:30:01;;;;;;;157.13;13.17;;;;;;;;;;6214433;28;20368;-88
2023/01/09 08:33:10;;;;;;;106.57;12.77;;;;;;;;;;6230954;28;20443;-90
2023/01/09 08:36:17;;;;;;;226.70;15.13;;;;;;;;;;6229626;28;20307;-89
2023/01/09 08:39:24;;;;;;;74.50;11.87;;;;;;;;;;6230423;28;20290;-88
2023/01/09 08:49:25;;;;;;;85.87;11.40;;;;;;;;;;6230560;28;20301;-89
2023/01/09 08:52:32;;;;;;;62.40;12.17;;;;;;;;;;6231103;28;20272;-88
2023/01/09 08:55:39;;;;;;;61.37;11.93;;;;;;;;;;6231214;28;20300;-89
2023/01/09 08:58:45;;;;;;;55.47;11.20;;;;;;;;;;6231883;28;20269;-89
2023/01/09 09:01:54;;;;;;;107.93;12.30;;;;;;;;;;6215863;28;20377;-89
2023/01/09 09:05:08;;;;;;;67.97;11.93;;;;;;;;;;6231396;28;20302;-89
2023/01/09 09:08:40;;;;;;;81.67;13.40;;;;;;;;;;6333370;28;20896;-86
2023/01/09 09:11:45;;;;;;;72.17;12.93;;;;;;;;;;6331282;28;20273;-84
2023/01/09 09:18:16;;;;;;;81.83;12.57;;;;;;;;;;6325641;28;20274;-85
2023/01/09 09:21:21;;;;;;;201.87;18.03;;;;;;;;;;6331834;28;20300;-84
2023/01/09 09:24:29;;;;;;;114.97;13.73;;;;;;;;;;6327550;28;20308;-85
2023/01/09 09:27:36;;;;;;;74.93;12.23;;;;;;;;;;6341527;28;20283;-84
2023/01/09 09:30:42;;;;;;;104.43;14.03;;;;;;;;;;6332170;28;20299;-84
2023/01/09 09:33:48;;;;;;;79.30;13.13;;;;;;;;;;6330590;27;20273;-85
2023/01/09 09:36:54;;;;;;;60.90;12.53;;;;;;;;;;6332410;28;20271;-85
2023/01/09 09:40:01;;;;;;;68.30;12.87;;;;;;;;;;6330717;28;20296;-84
2023/01/09 09:47:06;;;;;;;45.10;12.47;;;;;;;;;;6330284;28;20278;-85
2023/01/09 09:50:27;;;;;;;54.50;12.77;;;;;;;;;;6331663;28;20480;-83
2023/01/09 09:53:38;;;;;;;56.43;12.37;;;;;;;;;;6330526;28;20275;-85
2023/01/09 09:56:50;;;;;;;80.80;13.73;;;;;;;;;;6331365;28;20436;-84
2023/01/09 09:59:56;;;;;;;73.43;13.30;;;;;;;;;;6331258;27;20299;-83
2023/01/09 10:03:03;;;;;;;58.20;12.60;;;;;;;;;;6331441;28;20275;-83
2023/01/09 10:06:11;;;;;;;63.57;13.10;;;;;;;;;;6330638;28;20322;-85
2023/01/09 10:09:24;;;;;;;50.00;12.70;;;;;;;;;;6330732;28;20479;-85
2023/01/09 10:12:32;;;;;;;47.40;11.93;;;;;;;;;;6330028;28;20275;-85
2023/01/09 10:15:44;;;;;;;56.23;12.70;;;;;;;;;;6329783;28;20434;-85
2023/01/09 10:18:58;;;;;;;53.97;12.27;;;;;;;;;;6321255;28;20270;-86
2023/01/09 10:22:14;;;;;;;52.83;12.67;;;;;;;;;;6321161;28;20268;-84
2023/01/09 10:25:25;;;;;;;51.03;13.73;;;;;;;;;;6329168;28;20296;-85
2023/01/09 10:28:58;;;;;;;49.77;12.93;;;;;;;;;;6329539;28;20287;-83
2023/01/09 10:32:19;;;;;;;51.70;13.07;;;;;;;;;;6306519;28;20278;-85
2023/01/09 10:35:50;;;;;;;67.77;12.17;;;;;;;;;;6298992;28;20299;-84
2023/01/09 10:38:58;;;;;;;57.07;12.23;;;;;;;;;;6313762;28;20437;-86
2023/01/09 10:42:10;;;;;;;40.23;11.63;;;;;;;;;;6314361;28;20275;-84
2023/01/09 10:45:20;;;;;;;48.73;11.80;;;;;;;;;;6314490;28;20295;-85
2023/01/09 10:48:32;;;;;;;55.63;12.27;;;;;;;;;;6313909;28;20282;-83
2023/01/09 10:51:44;;;;;;;41.37;12.10;;;;;;;;;;6314217;28;20330;-84
2023/01/09 10:54:53;;;;;;;41.20;11.57;;;;;;;;;;6314479;28;20289;-84
2023/01/09 10:58:01;;;;;;;42.43;10.73;;;;;;;;;;6316039;28;20288;-85
2023/01/09 11:01:10;;;;;;;40.37;12.43;;;;;;;;;;6313953;28;20300;-84
2023/01/09 11:04:21;;;;;;;39.43;11.73;;;;;;;;;;6297880;28;20461;-85
2023/01/09 11:07:29;;;;;;;36.97;11.57;;;;;;;;;;6313360;28;20297;-84
2023/01/09 11:10:47;;;;;;;43.43;11.00;;;;;;;;;;6314291;28;20300;-85
2023/01/09 11:14:05;;;;;;;36.63;10.40;;;;;;;;;;6310587;28;20243;-84
2023/01/09 11:17:19;;;;;;;39.00;10.73;;;;;;;;;;6325886;28;20459;-85
2023/01/09 11:20:29;;;;;;;42.00;10.83;;;;;;;;;;6313368;28;20300;-84
2023/01/09 11:23:35;;;;;;;38.70;9.90;;;;;;;;;;6317059;28;20271;-83
2023/01/09 11:26:40;;;;;;;33.90;9.90;;;;;;;;;;6316666;28;20308;-85
2023/01/09 11:29:46;;;;;;;41.57;10.50;;;;;;;;;;6313813;28;20301;-85
2023/01/09 11:32:54;;;;;;;31.97;9.90;;;;;;;;;;6315699;28;20559;-83
2023/01/09 11:36:06;;;;;;;33.67;10.00;;;;;;;;;;6312868;28;20287;-84
2023/01/09 11:39:23;;;;;;;38.30;9.53;;;;;;;;;;6312535;28;20315;-84
2023/01/09 11:45:52;;;;;;;45.73;10.20;;;;;;;;;;6314217;28;20369;-84
2023/01/09 11:49:21;;;;;;;30.73;9.47;;;;;;;;;;6313559;28;20298;-84
2023/01/09 11:52:27;;;;;;;33.03;10.07;;;;;;;;;;6312385;28;20271;-83
2023/01/09 11:55:32;;;;;;;25.73;9.07;;;;;;;;;;6311790;28;20309;-83
2023/01/09 11:58:46;;;;;;;31.00;9.73;;;;;;;;;;6311008;28;20274;-84
2023/01/09 12:02:17;;;;;;;29.77;9.33;;;;;;;;;;6294622;28;20281;-83
2023/01/09 12:05:33;;;;;;;27.43;9.07;;;;;;;;;;6311752;28;20300;-84
2023/01/09 12:08:52;;;;;;;34.90;10.03;;;;;;;;;;6311176;28;20290;-83
2023/01/09 12:12:03;;;;;;;40.97;10.53;;;;;;;;;;6311033;28;20459;-85
2023/01/09 12:15:22;;;;;;;35.07;9.77;;;;;;;;;;6309205;28;20301;-85
2023/01/09 12:18:40;;;;;;;35.73;10.27;;;;;;;;;;6311971;28;20266;-83
2023/01/09 12:21:53;;;;;;;34.20;10.33;;;;;;;;;;6310000;28;20271;-84
2023/01/09 12:25:22;;;;;;;44.93;10.20;;;;;;;;;;6309748;28;20585;-83
2023/01/09 12:28:51;;;;;;;32.00;10.20;;;;;;;;;;6308636;28;20291;-83
2023/01/09 12:32:19;;;;;;;47.07;10.33;;;;;;;;;;6284727;28;20281;-83
2023/01/09 12:35:32;;;;;;;38.23;11.20;;;;;;;;;;6311615;28;20301;-83
2023/01/09 12:38:47;;;;;;;40.80;12.03;;;;;;;;;;6311716;28;20282;-83
2023/01/09 12:42:05;;;;;;;50.37;11.93;;;;;;;;;;6308658;28;20278;-83
2023/01/09 12:45:33;;;;;;;47.93;11.83;;;;;;;;;;6309321;28;20301;-84
2023/01/09 12:48:57;;;;;;;52.40;12.77;;;;;;;;;;6311290;28;20291;-84
2023/01/09 12:52:08;;;;;;;55.17;13.40;;;;;;;;;;6308110;28;20268;-83
2023/01/09 12:55:19;;;;;;;74.70;13.43;;;;;;;;;;6311273;28;20294;-84
2023/01/09 12:58:32;;;;;;;59.23;14.10;;;;;;;;;;6310143;28;20451;-82
2023/01/09 13:01:41;;;;;;;50.93;13.20;;;;;;;;;;6310768;28;20622;-84
2023/01/09 13:04:50;;;;;;;57.67;14.17;;;;;;;;;;6292623;28;20299;-83
2023/01/09 13:07:59;;;;;;;55.13;13.63;;;;;;;;;;6311196;28;20430;-84
2023/01/09 13:11:09;;;;;;;61.37;14.70;;;;;;;;;;6309137;28;20621;-84
2023/01/09 13:14:31;;;;;;;57.73;14.77;;;;;;;;;;6310391;28;20306;-83
2023/01/09 13:17:40;;;;;;;71.47;15.27;;;;;;;;;;6309046;28;20274;-82
2023/01/09 13:20:48;;;;;;;68.60;15.50;;;;;;;;;;6310205;28;20311;-84
2023/01/09 13:23:57;;;;;;;75.87;16.83;;;;;;;;;;6310164;28;20268;-83
2023/01/09 13:27:07;;;;;;;66.37;15.60;;;;;;;;;;6308886;28;20278;-83
2023/01/09 13:30:20;;;;;;;78.23;16.57;;;;;;;;;;6308833;28;20295;-82
2023/01/09 13:33:28;;;;;;;87.97;18.77;;;;;;;;;;6310322;28;20269;-82
2023/01/09 13:36:38;;;;;;;94.70;18.57;;;;;;;;;;6291972;28;20301;-83
2023/01/09 13:39:43;;;;;;;80.13;18.30;;;;;;;;;;6308812;28;20291;-83
2023/01/09 13:42:56;;;;;;;93.30;19.03;;;;;;;;;;6309025;28;20270;-83
2023/01/09 13:46:02;;;;;;;93.17;20.03;;;;;;;;;;6308991;28;20314;-83
2023/01/09 13:49:22;;;;;;;92.10;20.53;;;;;;;;;;6308628;28;20294;-83
2023/01/09 13:52:35;;;;;;;92.60;20.40;;;;;;;;;;6310018;28;20273;-84
2023/01/09 13:56:04;;;;;;;92.87;20.17;;;;;;;;;;6314021;28;20295;-82
2023/01/09 13:59:28;;;;;;;85.10;19.70;;;;;;;;;;6306595;28;20295;-83
2023/01/09 14:02:57;;;;;;;89.40;20.87;;;;;;;;;;6323711;28;20284;-83
2023/01/09 14:06:15;;;;;;;83.70;21.27;;;;;;;;;;6312274;28;20303;-83
2023/01/09 14:09:22;;;;;;;91.50;21.57;;;;;;;;;;6313825;28;20483;-84
2023/01/09 14:12:28;;;;;;;96.20;22.00;;;;;;;;;;6314079;28;20265;-81
2023/01/09 14:15:38;;;;;;;93.40;21.87;;;;;;;;;;6312897;28;20292;-82
2023/01/09 14:18:48;;;;;;;89.07;21.03;;;;;;;;;;6313789;28;20464;-82
2023/01/09 14:21:55;;;;;;;85.37;21.13;;;;;;;;;;6313214;28;20447;-83
2023/01/09 14:25:09;;;;;;;77.50;18.73;;;;;;;;;;6313887;28;20305;-82
2023/01/09 14:28:24;;;;;;;71.30;19.80;;;;;;;;;;6312498;28;20282;-84
2023/01/09 14:31:34;;;;;;;77.37;18.97;;;;;;;;;;6312114;28;20321;-82
2023/01/09 14:34:40;;;;;;;63.40;17.97;;;;;;;;;;6312163;28;20313;-83
2023/01/09 14:37:50;;;;;;;65.47;17.33;;;;;;;;;;6313424;28;20447;-83
2023/01/09 14:41:01;;;;;;;65.03;18.33;;;;;;;;;;6312011;28;20310;-82
2023/01/09 14:44:09;;;;;;;58.60;17.50;;;;;;;;;;6295082;28;20599;-83
2023/01/09 14:47:21;;;;;;;59.80;17.27;;;;;;;;;;6313282;28;20279;-84
2023/01/09 14:50:33;;;;;;;49.30;14.73;;;;;;;;;;6312556;28;20302;-83
2023/01/09 14:53:39;;;;;;;44.00;14.03;;;;;;;;;;6313547;28;20270;-81
2023/01/09 14:56:47;;;;;;;38.80;13.17;;;;;;;;;;6294423;28;20544;-82
2023/01/09 14:59:59;;;;;;;37.30;13.10;;;;;;;;;;6310724;28;20325;-81
2023/01/09 15:03:06;;;;;;;37.27;12.27;;;;;;;;;;6311305;28;20583;-81
2023/01/09 15:06:15;;;;;;;37.60;12.43;;;;;;;;;;6294253;28;20628;-81
2023/01/09 15:09:24;;;;;;;31.77;11.47;;;;;;;;;;6312047;28;20293;-80
2023/01/09 15:12:30;;;;;;;42.73;12.57;;;;;;;;;;6311688;28;20267;-84
2023/01/09 15:15:36;;;;;;;44.63;13.70;;;;;;;;;;6312000;28;20304;-80
2023/01/09 15:18:48;;;;;;;47.40;12.93;;;;;;;;;;6310949;28;20277;-81
2023/01/09 15:21:59;;;;;;;43.23;13.33;;;;;;;;;;6311810;28;20277;-82
2023/01/09 15:25:22;;;;;;;45.13;13.83;;;;;;;;;;6310686;28;20294;-80
2023/01/09 15:28:43;;;;;;;47.30;13.70;;;;;;;;;;6312132;28;20270;-83
2023/01/09 15:31:52;;;;;;;46.47;12.33;;;;;;;;;;6310626;28;20297;-82
2023/01/09 15:35:00;;;;;;;47.87;13.90;;;;;;;;;;6310373;28;20301;-83
2023/01/09 15:38:05;;;;;;;47.23;14.20;;;;;;;;;;6310548;28;20269;-82
2023/01/09 15:42:53;;;;;;;52.03;13.80;;;;;;;;;;6312392;28;20295;-83
2023/01/09 15:44:45;;;;;;;61.03;16.10;;;;;;;;;;6328908;28;20241;-83
2023/01/09 15:47:50;;;;;;;62.73;17.27;;;;;;;;;;6328642;28;20226;-82
2023/01/09 15:51:01;;;;;;;57.50;16.57;;;;;;;;;;6328202;28;20294;-83
2023/01/09 15:54:07;;;;;;;70.03;17.50;;;;;;;;;;6327001;28;20293;-83
2023/01/09 15:57:34;;;;;;;78.63;17.53;;;;;;;;;;6323930;28;20228;-83
2023/01/09 16:00:44;;;;;;;85.17;19.03;;;;;;;;;;6311978;28;20293;-81
2023/01/09 16:03:49;;;;;;;89.30;20.53;;;;;;;;;;6312489;28;20298;-84
2023/01/09 16:06:57;;;;;;;100.70;19.40;;;;;;;;;;6312615;28;20298;-85
2023/01/09 16:10:03;;;;;;;87.03;18.97;;;;;;;;;;6312538;28;20321;-84
2023/01/09 16:13:14;;;;;;;82.73;18.30;;;;;;;;;;6310988;28;20558;-83
2023/01/09 16:16:26;;;;;;;101.67;21.73;;;;;;;;;;6311072;28;20295;-83
2023/01/09 16:19:33;;;;;;;98.97;20.43;;;;;;;;;;6318660;28;20282;-84
2023/01/09 16:22:52;;;;;;;85.93;18.47;;;;;;;;;;6327480;28;20222;-84
2023/01/09 16:26:13;;;;;;;70.27;15.87;;;;;;;;;;6324649;28;20462;-85
2023/01/09 16:29:28;;;;;;;93.07;19.53;;;;;;;;;;6313295;28;20301;-84
2023/01/09 16:32:35;;;;;;;76.77;16.70;;;;;;;;;;6312190;28;20290;-85
2023/01/09 16:35:41;;;;;;;78.83;17.37;;;;;;;;;;6310004;28;20301;-83
2023/01/09 16:38:52;;;;;;;73.53;17.77;;;;;;;;;;6294061;28;20279;-85
2023/01/09 16:45:27;;;;;;;86.93;18.50;;;;;;;;;;6311808;28;20291;-84
2023/01/09 16:48:36;;;;;;;79.80;18.23;;;;;;;;;;6311129;28;20281;-84
2023/01/09 16:51:45;;;;;;;93.73;20.70;;;;;;;;;;6309826;28;20278;-87
2023/01/09 16:54:54;;;;;;;96.83;21.43;;;;;;;;;;6298307;28;20467;-87
2023/01/09 16:58:00;;;;;;;76.97;17.90;;;;;;;;;;6312346;28;20566;-85
2023/01/09 17:01:08;;;;;;;76.53;18.03;;;;;;;;;;6309440;28;20597;-87
2023/01/09 17:04:18;;;;;;;73.20;17.33;;;;;;;;;;6293320;28;20288;-85
2023/01/09 17:07:30;;;;;;;69.10;16.40;;;;;;;;;;6310748;28;20457;-85
2023/01/09 17:10:42;;;;;;;60.30;15.83;;;;;;;;;;6292965;28;20305;-85
2023/01/09 17:13:48;;;;;;;58.10;15.23;;;;;;;;;;6307942;28;20557;-85
2023/01/09 17:16:54;;;;;;;55.90;14.40;;;;;;;;;;6294487;28;20275;-85
2023/01/09 17:20:01;;;;;;;50.97;14.73;;;;;;;;;;6310940;28;20494;-85
2023/01/09 17:23:06;;;;;;;47.33;13.93;;;;;;;;;;6311339;28;20277;-84
2023/01/09 17:29:57;;;;;;;69.13;16.57;;;;;;;;;;6245823;28;20300;-84
2023/01/09 17:33:05;;;;;;;64.73;17.30;;;;;;;;;;6313947;28;20302;-85
2023/01/09 17:36:19;;;;;;;70.77;17.47;;;;;;;;;;6297085;28;20297;-84
2023/01/09 17:39:26;;;;;;;82.97;17.20;;;;;;;;;;6312912;28;20305;-85
2023/01/09 17:42:34;;;;;;;68.07;15.67;;;;;;;;;;6315319;28;20273;-85
2023/01/09 17:45:41;;;;;;;66.00;15.63;;;;;;;;;;6313950;28;20275;-85
2023/01/09 17:48:46;;;;;;;74.20;16.10;;;;;;;;;;6329056;28;20229;-84
2023/01/09 17:51:52;;;;;;;79.37;17.63;;;;;;;;;;6316815;28;20293;-80
2023/01/09 17:55:03;;;;;;;75.50;17.07;;;;;;;;;;6319362;28;20288;-87
2023/01/09 17:58:27;;;;;;;78.70;16.80;;;;;;;;;;6317644;28;20269;-87
2023/01/09 18:01:33;;;;;;;83.47;16.83;;;;;;;;;;6314901;28;20308;-84
2023/01/09 18:04:39;;;;;;;76.10;16.23;;;;;;;;;;6315135;28;20579;-90
2023/01/09 18:07:47;;;;;;;69.23;15.70;;;;;;;;;;6317891;28;20309;-90
2023/01/09 18:10:52;;;;;;;57.40;15.40;;;;;;;;;;6315599;28;20316;-86
2023/01/09 18:14:17;;;;;;;65.13;15.13;;;;;;;;;;6298215;28;20298;-79
2023/01/09 18:17:22;;;;;;;63.90;14.70;;;;;;;;;;6313641;28;20284;-81
2023/01/09 18:20:28;;;;;;;70.90;16.33;;;;;;;;;;6313204;28;20454;-80
2023/01/09 18:23:35;;;;;;;52.50;13.33;;;;;;;;;;6312347;28;20269;-82
2023/01/09 18:26:41;;;;;;;46.80;13.30;;;;;;;;;;6313665;28;20301;-89
2023/01/09 18:29:50;;;;;;;30.63;9.57;;;;;;;;;;6295812;28;20355;-88
2023/01/09 18:33:00;;;;;;;48.67;10.80;;;;;;;;;;6313396;28;20454;-85
2023/01/09 18:36:10;;;;;;;51.00;13.30;;;;;;;;;;6313621;28;20291;-87
2023/01/09 18:39:16;;;;;;;48.93;12.70;;;;;;;;;;6281590;28;20293;-87
2023/01/09 18:42:23;;;;;;;43.00;10.83;;;;;;;;;;6314074;28;20269;-84
2023/01/09 18:45:31;;;;;;;52.93;14.63;;;;;;;;;;6314167;28;20306;-86
2023/01/09 18:48:37;;;;;;;55.23;15.50;;;;;;;;;;6280897;28;20281;-87
2023/01/09 18:51:43;;;;;;;62.83;16.17;;;;;;;;;;6313987;28;20296;-88
2023/01/09 18:54:48;;;;;;;65.57;15.47;;;;;;;;;;6312375;28;20296;-81
2023/01/09 18:57:59;;;;;;;68.47;17.17;;;;;;;;;;6314936;28;20279;-84
2023/01/09 19:01:13;;;;;;;67.63;17.40;;;;;;;;;;6310655;28;20305;-84